Time;durP1;ratioP1;P1;durP2;ratioP2;P2;SDS_P1;SDS_P2;PMS_P1;PMS_P2;Temp;Humidity;BMP_temperature;BMP_pressure;BME280_temperature;BME280_humidity;BME280_pressure;Samples;Min_cycle;Max_cycle;Signal;HPM_P1;HPM_P2
2021/10/15 00:01:26;;;;;;;25.60;22.77;;;;;;;;;;5057901;28;20235;-73
2021/10/15 00:03:52;;;;;;;26.90;22.57;;;;;;;;;;5057850;28;20254;-73
2021/10/15 00:06:18;;;;;;;26.20;22.30;;;;;;;;;;5054641;28;20284;-73
2021/10/15 00:08:46;;;;;;;25.63;22.63;;;;;;;;;;5059511;28;20264;-73
2021/10/15 00:11:13;;;;;;;26.87;24.07;;;;;;;;;;5057454;28;20218;-73
2021/10/15 00:13:39;;;;;;;25.93;23.00;;;;;;;;;;5057305;28;20242;-73
2021/10/15 00:16:07;;;;;;;31.17;23.93;;;;;;;;;;5054397;28;20220;-73
2021/10/15 00:18:34;;;;;;;27.10;23.93;;;;;;;;;;5057681;28;20251;-73
2021/10/15 00:21:00;;;;;;;27.17;24.27;;;;;;;;;;5056123;28;20233;-73
2021/10/15 00:23:26;;;;;;;25.73;22.93;;;;;;;;;;5056187;28;20555;-73
2021/10/15 00:25:54;;;;;;;27.67;25.07;;;;;;;;;;5056611;28;20217;-73
2021/10/15 00:28:20;;;;;;;28.07;24.77;;;;;;;;;;5055955;28;20237;-73
2021/10/15 00:30:47;;;;;;;27.20;23.43;;;;;;;;;;5054379;28;20267;-73
2021/10/15 00:33:13;;;;;;;30.57;23.80;;;;;;;;;;5055912;28;20215;-73
2021/10/15 00:35:40;;;;;;;28.43;25.53;;;;;;;;;;5054088;28;20235;-73
2021/10/15 00:38:07;;;;;;;28.83;24.50;;;;;;;;;;5055909;28;20267;-73
2021/10/15 00:40:33;;;;;;;27.33;24.40;;;;;;;;;;5055581;28;20296;-73
2021/10/15 00:43:01;;;;;;;25.00;22.43;;;;;;;;;;5055631;28;20660;-73
2021/10/15 00:45:27;;;;;;;24.70;22.20;;;;;;;;;;5055395;28;20264;-73
2021/10/15 00:47:53;;;;;;;25.63;22.70;;;;;;;;;;5056623;28;20217;-72
2021/10/15 00:50:20;;;;;;;27.10;24.20;;;;;;;;;;5054782;28;20226;-73
2021/10/15 00:52:47;;;;;;;23.40;20.90;;;;;;;;;;5055073;28;20275;-73
2021/10/15 00:55:14;;;;;;;24.60;22.07;;;;;;;;;;5055719;28;21206;-73
2021/10/15 00:57:40;;;;;;;24.17;21.63;;;;;;;;;;5056120;28;20226;-73
2021/10/15 01:00:09;;;;;;;24.27;22.07;;;;;;;;;;5057069;28;20209;-73
2021/10/15 01:02:37;;;;;;;23.70;21.30;;;;;;;;;;5053974;28;20268;-73
2021/10/15 01:05:03;;;;;;;24.80;21.30;;;;;;;;;;5056208;28;20572;-73
2021/10/15 01:07:30;;;;;;;22.23;18.00;;;;;;;;;;5054864;28;20214;-73
2021/10/15 01:09:58;;;;;;;22.47;19.47;;;;;;;;;;5055388;28;20652;-73
2021/10/15 01:12:25;;;;;;;20.23;18.10;;;;;;;;;;5055143;28;20676;-73
2021/10/15 01:14:51;;;;;;;22.07;19.73;;;;;;;;;;5055331;28;20211;-73
2021/10/15 01:17:19;;;;;;;22.40;20.07;;;;;;;;;;5055650;28;20710;-72
2021/10/15 01:19:46;;;;;;;21.57;19.07;;;;;;;;;;5056116;28;20227;-72
2021/10/15 01:22:14;;;;;;;20.47;18.27;;;;;;;;;;5056172;28;20751;-73
2021/10/15 01:24:40;;;;;;;21.43;17.87;;;;;;;;;;5052592;28;20225;-73
2021/10/15 01:27:08;;;;;;;23.30;19.30;;;;;;;;;;5055976;28;20223;-73
2021/10/15 01:29:35;;;;;;;19.07;16.17;;;;;;;;;;5056008;28;20217;-73
2021/10/15 01:32:04;;;;;;;25.07;17.80;;;;;;;;;;5056121;28;20275;-73
2021/10/15 01:34:31;;;;;;;19.67;16.90;;;;;;;;;;5056018;28;20217;-73
2021/10/15 01:36:57;;;;;;;21.37;17.13;;;;;;;;;;5055315;28;20203;-73
2021/10/15 01:39:25;;;;;;;21.53;16.33;;;;;;;;;;5055767;28;20306;-73
2021/10/15 01:41:51;;;;;;;21.03;15.47;;;;;;;;;;5054642;28;20284;-73
2021/10/15 01:44:18;;;;;;;18.87;16.03;;;;;;;;;;5054410;28;20235;-73
2021/10/15 01:46:44;;;;;;;20.50;15.93;;;;;;;;;;5056532;28;20214;-73
2021/10/15 01:49:11;;;;;;;20.40;17.30;;;;;;;;;;5054294;28;20259;-73
2021/10/15 01:51:37;;;;;;;19.10;16.07;;;;;;;;;;5052878;28;20226;-73
2021/10/15 01:54:05;;;;;;;20.83;16.23;;;;;;;;;;5055196;28;20249;-73
2021/10/15 01:56:33;;;;;;;20.57;16.87;;;;;;;;;;5054213;28;20205;-73
2021/10/15 01:58:59;;;;;;;21.90;16.20;;;;;;;;;;5054554;28;20216;-73
2021/10/15 02:01:25;;;;;;;21.47;15.93;;;;;;;;;;5055706;28;20242;-73
2021/10/15 02:03:52;;;;;;;24.07;16.57;;;;;;;;;;5055090;28;20210;-72
2021/10/15 02:06:19;;;;;;;24.47;17.60;;;;;;;;;;5055377;28;20689;-72
2021/10/15 02:08:45;;;;;;;18.90;16.43;;;;;;;;;;5055147;28;21064;-72
2021/10/15 02:11:11;;;;;;;18.27;15.20;;;;;;;;;;5052900;28;20222;-72
2021/10/15 02:13:39;;;;;;;23.40;17.97;;;;;;;;;;5053327;28;20246;-72
2021/10/15 02:16:06;;;;;;;21.20;16.80;;;;;;;;;;5054353;28;20211;-72
2021/10/15 02:18:32;;;;;;;20.33;17.10;;;;;;;;;;5055330;28;20263;-72
2021/10/15 02:20:59;;;;;;;24.47;18.33;;;;;;;;;;5056163;28;20242;-72
2021/10/15 02:23:25;;;;;;;21.60;17.17;;;;;;;;;;5054260;28;20706;-72
2021/10/15 02:25:52;;;;;;;20.77;16.70;;;;;;;;;;5055134;28;20206;-72
2021/10/15 02:28:18;;;;;;;24.47;16.83;;;;;;;;;;5055107;28;20234;-72
2021/10/15 02:30:46;;;;;;;24.17;16.77;;;;;;;;;;5054965;28;20210;-72
2021/10/15 02:33:13;;;;;;;21.47;17.30;;;;;;;;;;5053876;28;20267;-72
2021/10/15 02:35:40;;;;;;;21.80;16.63;;;;;;;;;;5055379;28;20296;-72
2021/10/15 02:38:06;;;;;;;24.37;17.13;;;;;;;;;;5053206;28;20222;-73
2021/10/15 02:40:32;;;;;;;29.50;18.30;;;;;;;;;;5053240;28;20673;-73
2021/10/15 02:42:59;;;;;;;25.50;19.27;;;;;;;;;;5056621;28;20284;-73
2021/10/15 02:45:25;;;;;;;26.50;19.83;;;;;;;;;;5055341;28;20660;-72
2021/10/15 02:47:53;;;;;;;21.00;17.13;;;;;;;;;;5055433;28;20205;-72
2021/10/15 02:50:19;;;;;;;25.80;17.70;;;;;;;;;;5054969;28;20236;-72
2021/10/15 02:52:46;;;;;;;22.70;17.47;;;;;;;;;;5054805;28;20209;-72
2021/10/15 02:55:12;;;;;;;23.53;17.37;;;;;;;;;;5054431;28;20210;-72
2021/10/15 02:57:39;;;;;;;20.60;16.33;;;;;;;;;;5054789;28;20284;-71
2021/10/15 03:00:07;;;;;;;23.23;16.23;;;;;;;;;;5054516;28;20280;-71
2021/10/15 03:02:33;;;;;;;18.40;15.53;;;;;;;;;;5054902;28;20288;-71
2021/10/15 03:05:01;;;;;;;19.70;15.73;;;;;;;;;;5055671;28;20288;-71
2021/10/15 03:07:27;;;;;;;20.00;15.67;;;;;;;;;;5053888;28;20266;-72
2021/10/15 03:09:53;;;;;;;20.47;15.57;;;;;;;;;;5054272;28;20215;-72
2021/10/15 03:12:20;;;;;;;25.73;16.40;;;;;;;;;;5054203;28;20239;-72
2021/10/15 03:14:46;;;;;;;20.30;16.33;;;;;;;;;;5055008;28;20252;-71
2021/10/15 03:17:13;;;;;;;23.77;17.63;;;;;;;;;;5053771;28;20221;-72
2021/10/15 03:19:39;;;;;;;23.93;17.37;;;;;;;;;;5054668;28;20649;-71
2021/10/15 03:22:07;;;;;;;21.57;16.83;;;;;;;;;;5054068;28;20234;-71
2021/10/15 03:24:33;;;;;;;25.10;16.57;;;;;;;;;;5053780;28;20285;-71
2021/10/15 03:27:00;;;;;;;20.23;16.77;;;;;;;;;;5052416;28;20289;-71
2021/10/15 03:29:26;;;;;;;21.47;17.13;;;;;;;;;;5053752;28;20708;-71
2021/10/15 03:31:52;;;;;;;20.87;16.07;;;;;;;;;;5055407;28;20210;-71
2021/10/15 03:34:19;;;;;;;19.47;15.57;;;;;;;;;;5054184;28;20265;-71
2021/10/15 03:36:45;;;;;;;26.53;16.67;;;;;;;;;;5052473;28;20280;-71
2021/10/15 03:39:14;;;;;;;17.37;14.93;;;;;;;;;;5055830;28;20217;-71
2021/10/15 03:41:41;;;;;;;21.83;15.27;;;;;;;;;;5052141;28;20235;-71
2021/10/15 03:44:07;;;;;;;25.10;16.50;;;;;;;;;;5053934;28;20215;-71
2021/10/15 03:46:33;;;;;;;21.67;16.30;;;;;;;;;;5055024;28;20242;-71
2021/10/15 03:49:00;;;;;;;20.97;16.13;;;;;;;;;;5053530;28;20598;-71
2021/10/15 03:51:26;;;;;;;22.53;17.53;;;;;;;;;;5054971;28;20233;-71
2021/10/15 03:53:53;;;;;;;25.33;17.37;;;;;;;;;;5057524;28;20210;-71
2021/10/15 03:56:20;;;;;;;22.20;16.63;;;;;;;;;;5057207;28;20237;-71
2021/10/15 03:58:47;;;;;;;22.30;18.00;;;;;;;;;;5055986;28;20388;-71
2021/10/15 04:01:13;;;;;;;25.30;17.93;;;;;;;;;;5057135;28;20231;-72
2021/10/15 04:03:40;;;;;;;24.60;17.73;;;;;;;;;;5057430;28;20214;-71
2021/10/15 04:06:06;;;;;;;25.00;18.40;;;;;;;;;;5053572;28;20667;-71
2021/10/15 04:08:33;;;;;;;24.00;18.03;;;;;;;;;;5058587;28;20292;-71
2021/10/15 04:10:59;;;;;;;26.13;17.67;;;;;;;;;;5053917;28;20829;-71
2021/10/15 04:13:27;;;;;;;21.43;18.57;;;;;;;;;;5056458;28;20241;-72
2021/10/15 04:15:53;;;;;;;28.80;18.53;;;;;;;;;;5057099;28;20218;-71
2021/10/15 04:18:19;;;;;;;26.83;17.73;;;;;;;;;;5054588;28;20214;-71
2021/10/15 04:20:46;;;;;;;23.73;17.87;;;;;;;;;;5047689;28;20242;-71
2021/10/15 04:23:12;;;;;;;20.97;17.60;;;;;;;;;;5056554;28;20239;-71
2021/10/15 04:25:39;;;;;;;24.80;17.80;;;;;;;;;;5056807;28;20205;-71
2021/10/15 04:28:05;;;;;;;23.13;17.30;;;;;;;;;;5057203;28;20927;-71
2021/10/15 04:30:33;;;;;;;23.33;17.02;;;;;;;;;;5056733;28;20440;-70
2021/10/15 04:32:59;;;;;;;21.23;15.50;;;;;;;;;;5056962;28;20260;-70
2021/10/15 04:35:26;;;;;;;21.60;15.87;;;;;;;;;;5058288;28;20222;-70
2021/10/15 04:37:52;;;;;;;21.40;13.90;;;;;;;;;;5054178;28;20222;-70
2021/10/15 04:40:19;;;;;;;18.80;10.60;;;;;;;;;;5056957;28;20264;-70
2021/10/15 04:42:45;;;;;;;11.20;5.93;;;;;;;;;;5056591;28;20234;-69
2021/10/15 04:45:12;;;;;;;11.67;4.10;;;;;;;;;;5055098;28;20288;-70
2021/10/15 04:47:40;;;;;;;11.23;4.17;;;;;;;;;;5057114;28;20217;-69
2021/10/15 04:50:08;;;;;;;10.47;3.67;;;;;;;;;;5056231;28;20274;-69
2021/10/15 04:52:35;;;;;;;11.90;4.30;;;;;;;;;;5053468;28;20206;-70
2021/10/15 04:55:01;;;;;;;13.20;4.27;;;;;;;;;;5056081;28;20215;-69
2021/10/15 04:57:28;;;;;;;12.17;4.20;;;;;;;;;;5057564;28;20261;-69
2021/10/15 04:59:54;;;;;;;18.60;4.57;;;;;;;;;;5055750;28;20264;-69
2021/10/15 05:02:21;;;;;;;13.37;4.20;;;;;;;;;;5054986;28;20230;-69
2021/10/15 05:04:49;;;;;;;12.70;4.17;;;;;;;;;;5056987;28;20276;-69
2021/10/15 05:07:15;;;;;;;11.53;5.00;;;;;;;;;;5054858;28;20210;-69
2021/10/15 05:09:42;;;;;;;13.07;5.23;;;;;;;;;;5056470;28;20218;-69
2021/10/15 05:12:13;;;;;;;13.17;5.63;;;;;;;;;;5056954;28;20234;-70
2021/10/15 05:14:40;;;;;;;15.77;6.00;;;;;;;;;;5055070;28;20214;-71
2021/10/15 05:17:06;;;;;;;11.10;5.90;;;;;;;;;;5056221;28;20264;-70
2021/10/15 05:19:34;;;;;;;14.27;8.27;;;;;;;;;;5055620;28;20229;-70
2021/10/15 05:22:02;;;;;;;14.40;8.43;;;;;;;;;;5056580;28;20295;-70
2021/10/15 05:24:29;;;;;;;17.07;9.17;;;;;;;;;;5056337;28;20214;-70
2021/10/15 05:26:55;;;;;;;18.77;8.83;;;;;;;;;;5055794;28;20233;-71
2021/10/15 05:29:22;;;;;;;10.53;8.03;;;;;;;;;;5052778;28;20591;-71
2021/10/15 05:31:48;;;;;;;12.63;8.20;;;;;;;;;;5056596;28;20262;-71
2021/10/15 05:34:15;;;;;;;9.87;7.47;;;;;;;;;;5055010;28;20769;-71
2021/10/15 05:36:42;;;;;;;13.03;3.70;;;;;;;;;;5055775;28;20238;-69
2021/10/15 05:39:10;;;;;;;7.60;1.50;;;;;;;;;;5056417;28;21093;-70
2021/10/15 05:41:36;;;;;;;4.73;0.90;;;;;;;;;;5056082;28;20275;-71
2021/10/15 05:44:03;;;;;;;4.37;0.50;;;;;;;;;;5055584;28;21260;-70
2021/10/15 05:46:30;;;;;;;2.53;0.43;;;;;;;;;;5053725;28;20216;-70
2021/10/15 05:48:56;;;;;;;1.70;0.50;;;;;;;;;;5056565;28;20223;-70
2021/10/15 05:51:24;;;;;;;1.97;1.07;;;;;;;;;;5054413;28;20233;-70
2021/10/15 05:53:52;;;;;;;4.97;0.70;;;;;;;;;;5054213;28;20215;-72
2021/10/15 05:56:39;;;;;;;6.27;0.80;;;;;;;;;;5055519;28;20243;-72
2021/10/15 05:59:05;;;;;;;4.47;1.13;;;;;;;;;;5056452;28;20255;-73
2021/10/15 06:01:33;;;;;;;5.67;1.00;;;;;;;;;;5055571;28;20279;-73
2021/10/15 06:04:22;;;;;;;2.77;1.13;;;;;;;;;;5056089;28;20243;-72
2021/10/15 06:15:26;;;;;;;6.53;1.40;;;;;;;;;;5014410;28;20227;-70
2021/10/15 06:17:53;;;;;;;9.30;1.13;;;;;;;;;;5033452;28;20269;-69
2021/10/15 06:20:19;;;;;;;5.63;1.00;;;;;;;;;;5029674;28;20256;-69
2021/10/15 06:22:46;;;;;;;7.97;2.30;;;;;;;;;;5033295;28;20304;-69
2021/10/15 06:25:12;;;;;;;6.47;1.17;;;;;;;;;;5032389;28;20221;-69
2021/10/15 06:27:40;;;;;;;12.43;1.60;;;;;;;;;;5032216;28;20225;-69
2021/10/15 06:30:07;;;;;;;10.93;1.60;;;;;;;;;;5034555;28;20654;-69
2021/10/15 06:32:33;;;;;;;9.73;1.70;;;;;;;;;;5033466;28;20218;-68
2021/10/15 06:35:00;;;;;;;4.80;1.10;;;;;;;;;;5031474;28;20234;-68
2021/10/15 06:37:26;;;;;;;8.90;1.87;;;;;;;;;;5031353;28;20258;-69
2021/10/15 06:39:53;;;;;;;6.50;1.50;;;;;;;;;;5030891;28;20229;-68
2021/10/15 06:42:20;;;;;;;8.93;1.43;;;;;;;;;;5030672;28;20602;-68
2021/10/15 06:44:48;;;;;;;8.97;1.50;;;;;;;;;;5029666;28;20226;-69
2021/10/15 06:47:14;;;;;;;8.73;1.40;;;;;;;;;;5028424;28;20214;-69
2021/10/15 06:49:41;;;;;;;8.83;2.30;;;;;;;;;;5025776;28;20279;-69
2021/10/15 06:52:07;;;;;;;10.10;1.43;;;;;;;;;;5031856;28;20861;-69
2021/10/15 06:54:34;;;;;;;8.40;2.27;;;;;;;;;;5031949;28;20275;-69
2021/10/15 06:57:00;;;;;;;7.67;1.70;;;;;;;;;;5026868;28;20296;-69
2021/10/15 06:59:27;;;;;;;9.47;1.40;;;;;;;;;;5029476;28;20215;-68
2021/10/15 07:01:54;;;;;;;10.13;1.70;;;;;;;;;;5031337;28;20292;-71
2021/10/15 07:04:21;;;;;;;6.93;1.60;;;;;;;;;;5029635;28;20272;-68
2021/10/15 07:06:47;;;;;;;7.63;1.50;;;;;;;;;;5027779;28;20234;-68
2021/10/15 07:09:14;;;;;;;4.37;1.03;;;;;;;;;;5029302;28;20283;-68
2021/10/15 07:11:40;;;;;;;6.57;1.87;;;;;;;;;;5028614;28;20632;-69
2021/10/15 07:14:07;;;;;;;7.60;1.90;;;;;;;;;;5048486;28;20324;-69
2021/10/15 07:16:34;;;;;;;9.07;1.60;;;;;;;;;;5049396;28;20229;-69
2021/10/15 07:19:01;;;;;;;8.73;1.50;;;;;;;;;;5049443;28;20720;-69
2021/10/15 07:21:28;;;;;;;8.13;2.00;;;;;;;;;;5050280;28;20250;-69
2021/10/15 07:23:55;;;;;;;10.60;1.50;;;;;;;;;;5049654;28;20653;-69
2021/10/15 07:26:22;;;;;;;6.00;1.20;;;;;;;;;;5052397;28;20759;-69
2021/10/15 07:28:48;;;;;;;2.87;0.70;;;;;;;;;;5053297;28;20236;-69
2021/10/15 07:31:15;;;;;;;7.43;1.53;;;;;;;;;;5053074;28;20802;-69
2021/10/15 07:33:41;;;;;;;8.20;1.50;;;;;;;;;;5053965;28;20286;-69
2021/10/15 07:36:09;;;;;;;1.70;0.80;;;;;;;;;;5053000;28;20838;-68
2021/10/15 07:38:36;;;;;;;6.03;1.07;;;;;;;;;;5053147;28;20245;-68
2021/10/15 07:41:02;;;;;;;3.90;0.90;;;;;;;;;;5051464;28;20209;-68
2021/10/15 07:43:29;;;;;;;5.53;1.20;;;;;;;;;;5053257;28;20237;-68
2021/10/15 07:45:55;;;;;;;4.97;1.03;;;;;;;;;;5052784;28;20286;-68
2021/10/15 07:48:22;;;;;;;5.53;0.80;;;;;;;;;;5051225;28;20217;-68
2021/10/15 07:50:48;;;;;;;6.60;1.50;;;;;;;;;;5051897;28;20233;-69
2021/10/15 07:53:16;;;;;;;4.70;1.00;;;;;;;;;;5052516;28;20233;-68
2021/10/15 07:55:42;;;;;;;8.40;1.73;;;;;;;;;;5051839;28;20627;-68
2021/10/15 07:58:09;;;;;;;8.10;1.13;;;;;;;;;;5052939;28;20221;-68
2021/10/15 08:00:38;;;;;;;6.97;1.30;;;;;;;;;;5052749;28;20984;-68
2021/10/15 08:03:05;;;;;;;5.10;1.10;;;;;;;;;;5049922;28;20233;-68
2021/10/15 08:05:31;;;;;;;11.20;1.83;;;;;;;;;;5052314;28;20234;-68
2021/10/15 08:07:57;;;;;;;7.10;1.30;;;;;;;;;;5050956;28;21109;-68
2021/10/15 08:10:26;;;;;;;10.63;1.40;;;;;;;;;;5051253;28;20279;-68
2021/10/15 08:12:52;;;;;;;7.20;1.33;;;;;;;;;;5050944;28;20644;-68
2021/10/15 08:15:19;;;;;;;3.93;1.40;;;;;;;;;;5050448;28;20275;-68
2021/10/15 08:17:46;;;;;;;8.33;1.53;;;;;;;;;;5052923;28;20362;-68
2021/10/15 08:20:15;;;;;;;11.07;1.70;;;;;;;;;;5053413;28;20230;-68
2021/10/15 08:22:42;;;;;;;10.47;1.77;;;;;;;;;;5053170;28;20283;-68
2021/10/15 08:25:09;;;;;;;8.20;1.37;;;;;;;;;;5051775;28;20269;-68
2021/10/15 08:27:37;;;;;;;7.07;1.50;;;;;;;;;;5051516;28;20215;-68
2021/10/15 08:30:04;;;;;;;7.03;1.43;;;;;;;;;;5051571;28;20444;-68
2021/10/15 08:32:31;;;;;;;9.67;2.33;;;;;;;;;;5051929;28;20222;-68
2021/10/15 08:34:57;;;;;;;12.03;2.00;;;;;;;;;;5051763;28;20272;-68
2021/10/15 08:37:24;;;;;;;11.77;2.10;;;;;;;;;;5050824;28;20947;-68
2021/10/15 08:39:50;;;;;;;11.70;2.13;;;;;;;;;;5051935;28;20233;-69
2021/10/15 08:42:16;;;;;;;12.27;2.27;;;;;;;;;;5051942;28;20224;-69
2021/10/15 08:44:46;;;;;;;8.50;1.80;;;;;;;;;;5052192;28;20245;-69
2021/10/15 08:47:14;;;;;;;7.93;2.10;;;;;;;;;;5049411;28;20208;-69
2021/10/15 08:49:41;;;;;;;9.83;1.70;;;;;;;;;;5051616;28;20539;-69
2021/10/15 08:52:07;;;;;;;12.67;1.93;;;;;;;;;;5052090;28;20299;-69
2021/10/15 08:54:33;;;;;;;11.17;2.27;;;;;;;;;;5053018;28;20222;-69
2021/10/15 08:57:00;;;;;;;9.07;2.37;;;;;;;;;;5050003;28;20273;-69
2021/10/15 08:59:37;;;;;;;8.17;2.00;;;;;;;;;;5052026;28;20225;-69
2021/10/15 09:02:12;;;;;;;7.57;1.80;;;;;;;;;;5051004;28;20233;-69
2021/10/15 09:04:47;;;;;;;7.00;1.43;;;;;;;;;;5051980;28;20229;-69
2021/10/15 09:07:15;;;;;;;12.23;1.63;;;;;;;;;;5051680;28;20689;-69
2021/10/15 09:09:43;;;;;;;7.07;1.60;;;;;;;;;;5052261;28;20310;-69
2021/10/15 09:12:11;;;;;;;5.73;1.90;;;;;;;;;;5049683;28;20217;-69
2021/10/15 09:14:38;;;;;;;6.90;1.60;;;;;;;;;;5052765;28;20207;-69
2021/10/15 09:17:08;;;;;;;5.33;1.23;;;;;;;;;;5051630;28;20227;-69
2021/10/15 09:19:38;;;;;;;7.30;1.77;;;;;;;;;;5052485;28;20659;-69
2021/10/15 09:22:17;;;;;;;5.77;1.63;;;;;;;;;;5051075;28;20210;-69
2021/10/15 09:24:47;;;;;;;6.97;1.50;;;;;;;;;;5050996;28;20217;-69
2021/10/15 09:27:17;;;;;;;6.47;1.60;;;;;;;;;;5051525;28;20218;-69
2021/10/15 09:29:45;;;;;;;5.87;1.60;;;;;;;;;;5051184;28;20206;-69
2021/10/15 09:32:12;;;;;;;9.63;1.90;;;;;;;;;;5051123;28;20443;-69
2021/10/15 09:34:40;;;;;;;6.67;1.40;;;;;;;;;;5050240;28;20237;-69
2021/10/15 09:37:14;;;;;;;8.37;1.67;;;;;;;;;;5049569;28;20206;-69
2021/10/15 09:39:41;;;;;;;8.23;1.77;;;;;;;;;;5049714;28;20213;-69
2021/10/15 09:42:26;;;;;;;9.30;1.63;;;;;;;;;;5052433;28;20217;-69
2021/10/15 09:44:54;;;;;;;6.33;1.43;;;;;;;;;;5050720;28;20679;-70
2021/10/15 09:47:23;;;;;;;10.40;1.63;;;;;;;;;;5048857;28;20207;-70
2021/10/15 09:49:54;;;;;;;8.47;1.87;;;;;;;;;;5050041;28;20679;-70
2021/10/15 09:52:29;;;;;;;3.60;1.37;;;;;;;;;;5051288;28;20201;-70
2021/10/15 09:54:57;;;;;;;6.37;1.30;;;;;;;;;;5052127;28;20209;-70
2021/10/15 09:57:32;;;;;;;5.00;1.60;;;;;;;;;;5050607;28;20214;-71
2021/10/15 09:59:59;;;;;;;7.43;1.50;;;;;;;;;;5050331;28;20209;-71
2021/10/15 10:02:26;;;;;;;10.93;1.77;;;;;;;;;;5049323;28;20832;-71
2021/10/15 10:04:55;;;;;;;7.43;1.63;;;;;;;;;;5051119;28;20233;-70
2021/10/15 10:07:22;;;;;;;4.53;1.50;;;;;;;;;;5049596;28;20214;-70
2021/10/15 10:09:49;;;;;;;6.10;1.60;;;;;;;;;;5049493;28;20264;-72
2021/10/15 10:12:16;;;;;;;8.53;2.13;;;;;;;;;;5048900;28;20217;-71
2021/10/15 10:14:42;;;;;;;7.27;2.17;;;;;;;;;;5049464;28;20727;-71
2021/10/15 10:17:13;;;;;;;7.67;1.67;;;;;;;;;;5050321;28;20216;-70
2021/10/15 10:19:42;;;;;;;10.20;2.00;;;;;;;;;;5051000;28;20234;-71
2021/10/15 10:22:11;;;;;;;6.53;2.43;;;;;;;;;;5050520;28;20214;-71
2021/10/15 10:24:45;;;;;;;9.77;2.17;;;;;;;;;;5050861;28;20242;-70
2021/10/15 10:27:12;;;;;;;8.07;2.30;;;;;;;;;;5049517;28;20379;-71
2021/10/15 10:29:45;;;;;;;11.53;2.30;;;;;;;;;;5052305;28;20713;-71
2021/10/15 10:32:15;;;;;;;10.83;3.03;;;;;;;;;;5051412;28;20203;-71
2021/10/15 10:34:42;;;;;;;13.90;3.40;;;;;;;;;;5051761;28;20295;-71
2021/10/15 10:37:11;;;;;;;9.43;2.40;;;;;;;;;;5048808;28;20249;-71
2021/10/15 10:39:38;;;;;;;15.47;2.90;;;;;;;;;;5052046;28;20794;-71
2021/10/15 10:42:07;;;;;;;14.30;3.27;;;;;;;;;;5049643;28;20264;-71
2021/10/15 10:44:37;;;;;;;12.60;2.30;;;;;;;;;;5050217;28;20318;-71
2021/10/15 10:47:11;;;;;;;10.93;2.30;;;;;;;;;;5048797;28;20206;-71
2021/10/15 10:49:38;;;;;;;9.23;2.20;;;;;;;;;;5049840;28;20245;-71
2021/10/15 10:52:14;;;;;;;8.97;2.40;;;;;;;;;;5050509;28;20246;-71
2021/10/15 10:54:43;;;;;;;11.20;2.50;;;;;;;;;;5052206;28;20272;-71
2021/10/15 10:57:16;;;;;;;10.30;2.70;;;;;;;;;;5041673;28;20591;-71
2021/10/15 10:59:43;;;;;;;12.37;2.83;;;;;;;;;;5053159;28;20214;-71
2021/10/15 11:02:19;;;;;;;22.13;2.67;;;;;;;;;;5053519;28;20256;-71
2021/10/15 11:04:56;;;;;;;11.90;2.93;;;;;;;;;;5055168;28;20238;-71
2021/10/15 11:07:28;;;;;;;12.57;2.77;;;;;;;;;;5053055;28;20203;-71
2021/10/15 11:10:00;;;;;;;16.30;2.90;;;;;;;;;;5054371;28;20211;-71
2021/10/15 11:12:59;;;;;;;15.77;2.90;;;;;;;;;;5052474;28;20214;-71
2021/10/15 11:15:30;;;;;;;19.50;4.07;;;;;;;;;;5052282;28;20206;-74
2021/10/15 11:17:56;;;;;;;16.70;3.70;;;;;;;;;;5052116;28;20567;-71
2021/10/15 11:20:25;;;;;;;14.70;3.13;;;;;;;;;;5051675;28;20234;-70
2021/10/15 11:22:55;;;;;;;17.57;3.20;;;;;;;;;;5054488;28;20841;-71
2021/10/15 11:25:24;;;;;;;13.37;2.90;;;;;;;;;;5051829;28;20233;-71
2021/10/15 11:27:52;;;;;;;16.30;2.80;;;;;;;;;;5052296;28;20206;-71
2021/10/15 11:30:19;;;;;;;11.80;3.47;;;;;;;;;;5054466;28;20215;-72
2021/10/15 11:32:48;;;;;;;13.70;2.80;;;;;;;;;;5054310;28;20227;-71
2021/10/15 11:35:17;;;;;;;20.77;3.73;;;;;;;;;;5052033;28;20755;-71
2021/10/15 11:37:50;;;;;;;18.13;3.07;;;;;;;;;;5052195;28;20531;-72
2021/10/15 11:40:21;;;;;;;13.13;3.07;;;;;;;;;;5054210;28;20263;-71
2021/10/15 11:42:49;;;;;;;15.90;3.90;;;;;;;;;;5052725;28;20856;-71
2021/10/15 11:45:30;;;;;;;9.10;2.87;;;;;;;;;;5051600;28;20299;-71
2021/10/15 11:48:01;;;;;;;16.30;3.17;;;;;;;;;;5050472;28;20211;-71
2021/10/15 11:50:43;;;;;;;10.30;2.60;;;;;;;;;;5053926;28;20223;-71
2021/10/15 11:53:11;;;;;;;11.43;3.33;;;;;;;;;;5052842;28;20662;-71
2021/10/15 11:55:41;;;;;;;9.27;2.30;;;;;;;;;;5052847;28;20218;-71
2021/10/15 11:58:23;;;;;;;14.93;3.30;;;;;;;;;;5050513;28;20206;-71
2021/10/15 12:01:04;;;;;;;11.73;3.13;;;;;;;;;;5052137;28;20214;-72
2021/10/15 12:03:33;;;;;;;13.97;2.57;;;;;;;;;;5051526;28;20230;-71
2021/10/15 12:06:13;;;;;;;10.93;2.57;;;;;;;;;;5051181;28;20226;-71
2021/10/15 12:08:40;;;;;;;9.10;2.10;;;;;;;;;;5051710;28;20636;-71
2021/10/15 12:11:14;;;;;;;9.20;2.20;;;;;;;;;;5051780;28;20229;-71
2021/10/15 12:13:41;;;;;;;6.17;2.20;;;;;;;;;;5044733;28;20267;-71
2021/10/15 12:16:22;;;;;;;10.20;2.50;;;;;;;;;;5044799;28;20776;-71
2021/10/15 12:18:57;;;;;;;11.07;2.80;;;;;;;;;;5050733;28;20226;-71
2021/10/15 12:21:31;;;;;;;13.50;2.20;;;;;;;;;;5053644;28;20210;-71
2021/10/15 12:23:58;;;;;;;8.33;2.30;;;;;;;;;;5053847;28;20231;-71
2021/10/15 12:26:26;;;;;;;8.40;2.90;;;;;;;;;;5051654;28;20210;-71
2021/10/15 12:28:53;;;;;;;13.57;2.27;;;;;;;;;;5052539;28;20567;-73
2021/10/15 12:31:28;;;;;;;14.80;3.40;;;;;;;;;;5050927;28;20203;-71
2021/10/15 12:34:06;;;;;;;8.27;2.50;;;;;;;;;;5051195;28;20667;-71
2021/10/15 12:36:33;;;;;;;12.63;3.20;;;;;;;;;;5048646;28;20214;-71
2021/10/15 12:39:17;;;;;;;14.00;3.20;;;;;;;;;;5051030;28;20295;-73
2021/10/15 12:41:45;;;;;;;10.40;1.93;;;;;;;;;;5052828;28;20268;-71
2021/10/15 12:44:23;;;;;;;8.27;2.13;;;;;;;;;;5051081;28;20323;-71
2021/10/15 12:47:00;;;;;;;6.40;2.17;;;;;;;;;;5050946;28;20271;-71
2021/10/15 12:49:28;;;;;;;9.23;2.30;;;;;;;;;;5050113;28;20296;-71
2021/10/15 12:51:55;;;;;;;9.73;2.23;;;;;;;;;;5051115;28;20218;-71
2021/10/15 12:54:42;;;;;;;10.60;2.40;;;;;;;;;;5051220;28;20231;-71
2021/10/15 12:57:12;;;;;;;9.93;2.70;;;;;;;;;;5055738;28;20203;-71
2021/10/15 12:59:38;;;;;;;10.37;2.00;;;;;;;;;;5053642;28;20656;-71
2021/10/15 13:02:06;;;;;;;10.70;2.77;;;;;;;;;;5054682;28;20215;-71
2021/10/15 13:04:34;;;;;;;6.30;2.20;;;;;;;;;;5053741;28;20340;-71
2021/10/15 13:07:01;;;;;;;9.67;2.40;;;;;;;;;;5054815;28;20214;-71
2021/10/15 13:09:31;;;;;;;14.57;2.23;;;;;;;;;;5051921;28;20234;-71
2021/10/15 13:11:58;;;;;;;42.43;4.57;;;;;;;;;;5055938;28;20306;-71
2021/10/15 13:14:25;;;;;;;11.57;3.03;;;;;;;;;;5053839;28;20281;-73
2021/10/15 13:16:53;;;;;;;9.30;2.40;;;;;;;;;;5053292;28;20726;-71
2021/10/15 13:19:19;;;;;;;10.43;2.47;;;;;;;;;;5053008;28;20238;-71
2021/10/15 13:21:45;;;;;;;20.20;3.23;;;;;;;;;;5052294;28;21232;-72
2021/10/15 13:24:12;;;;;;;7.87;1.80;;;;;;;;;;5052359;28;20246;-72
2021/10/15 13:26:38;;;;;;;8.37;2.10;;;;;;;;;;5052449;28;20207;-72
2021/10/15 13:29:05;;;;;;;8.20;2.00;;;;;;;;;;5055948;28;20310;-72
2021/10/15 13:31:34;;;;;;;10.87;2.00;;;;;;;;;;5052610;28;20601;-72
2021/10/15 13:34:01;;;;;;;6.90;2.10;;;;;;;;;;5054608;28;20231;-72
2021/10/15 13:36:27;;;;;;;10.07;2.03;;;;;;;;;;5053395;28;20214;-72
2021/10/15 13:38:54;;;;;;;8.13;2.00;;;;;;;;;;5053947;28;20661;-72
2021/10/15 13:41:33;;;;;;;7.10;2.30;;;;;;;;;;5052475;28;20230;-72
2021/10/15 13:44:10;;;;;;;9.80;2.43;;;;;;;;;;5054472;28;20194;-72
2021/10/15 13:46:49;;;;;;;10.50;2.30;;;;;;;;;;5054198;28;20206;-72
2021/10/15 13:51:59;;;;;;;8.43;2.40;;;;;;;;;;5054138;28;20210;-72
2021/10/15 13:54:25;;;;;;;8.53;2.17;;;;;;;;;;5053239;28;20217;-72
2021/10/15 13:56:52;;;;;;;9.90;2.17;;;;;;;;;;5052802;28;20220;-72
2021/10/15 13:59:23;;;;;;;10.90;2.20;;;;;;;;;;5051818;28;20544;-72
2021/10/15 14:01:56;;;;;;;11.10;2.30;;;;;;;;;;5052894;28;20214;-72
2021/10/15 14:04:29;;;;;;;10.03;2.20;;;;;;;;;;5056088;28;20230;-72
2021/10/15 14:06:56;;;;;;;12.50;2.50;;;;;;;;;;5053154;28;20207;-72
2021/10/15 14:09:22;;;;;;;8.13;2.10;;;;;;;;;;5053783;28;20752;-72
2021/10/15 14:11:48;;;;;;;12.63;2.67;;;;;;;;;;5053654;28;20620;-72
2021/10/15 14:14:15;;;;;;;9.37;2.53;;;;;;;;;;5052936;28;20727;-73
2021/10/15 14:16:42;;;;;;;9.00;2.47;;;;;;;;;;5051979;28;20293;-73
2021/10/15 14:19:09;;;;;;;10.57;2.23;;;;;;;;;;5051644;28;20285;-72
2021/10/15 14:21:38;;;;;;;10.00;2.13;;;;;;;;;;5053393;28;20252;-73
2021/10/15 14:24:05;;;;;;;10.43;1.80;;;;;;;;;;5052912;28;20641;-73
2021/10/15 14:26:32;;;;;;;7.67;1.80;;;;;;;;;;5054034;28;20274;-73
2021/10/15 14:28:58;;;;;;;5.93;2.07;;;;;;;;;;5050020;28;20276;-72
2021/10/15 14:31:25;;;;;;;5.03;1.50;;;;;;;;;;5051973;28;20253;-72
2021/10/15 14:33:51;;;;;;;7.77;1.93;;;;;;;;;;5051373;28;20857;-72
2021/10/15 14:36:19;;;;;;;8.90;1.97;;;;;;;;;;5053119;28;20363;-72
2021/10/15 14:38:46;;;;;;;11.40;2.30;;;;;;;;;;5052745;28;20242;-72
2021/10/15 14:41:12;;;;;;;7.63;1.87;;;;;;;;;;5051341;28;20216;-72
2021/10/15 14:43:39;;;;;;;9.00;2.20;;;;;;;;;;5052811;28;20271;-72
2021/10/15 14:46:07;;;;;;;10.27;2.20;;;;;;;;;;5052417;28;20238;-72
2021/10/15 14:48:33;;;;;;;9.10;2.10;;;;;;;;;;5052341;28;20593;-72